sensor_id;sensor_type;location;lat;lon;timestamp;pressure;altitude;pressure_sealevel;temperature;humidity
2405;BME280;1213;43.206;27.922;2022-07-17T00:01:32;101387.22;;;22.56;100.00
2405;BME280;1213;43.206;27.922;2022-07-17T00:03:58;101389.06;;;22.56;100.00
2405;BME280;1213;43.206;27.922;2022-07-17T00:06:23;101396.56;;;22.44;100.00
2405;BME280;1213;43.206;27.922;2022-07-17T00:08:49;101396.56;;;22.44;100.00
2405;BME280;1213;43.206;27.922;2022-07-17T00:11:14;101393.72;;;22.46;100.00
2405;BME280;1213;43.206;27.922;2022-07-17T00:13:40;101402.09;;;22.51;100.00
2405;BME280;1213;43.206;27.922;2022-07-17T00:16:06;101403.63;;;22.53;100.00
2405;BME280;1213;43.206;27.922;2022-07-17T00:18:31;101391.19;;;22.44;100.00
2405;BME280;1213;43.206;27.922;2022-07-17T00:20:57;101393.72;;;22.37;100.00
2405;BME280;1213;43.206;27.922;2022-07-17T00:23:23;101404.44;;;22.37;100.00
2405;BME280;1213;43.206;27.922;2022-07-17T00:25:48;101401.06;;;22.35;100.00
2405;BME280;1213;43.206;27.922;2022-07-17T00:28:14;101394.38;;;22.31;100.00
2405;BME280;1213;43.206;27.922;2022-07-17T00:30:39;101393.00;;;22.27;100.00
2405;BME280;1213;43.206;27.922;2022-07-17T00:33:05;101388.84;;;22.33;100.00
2405;BME280;1213;43.206;27.922;2022-07-17T00:35:30;101383.34;;;22.42;100.00
2405;BME280;1213;43.206;27.922;2022-07-17T00:37:56;101384.31;;;22.33;100.00
2405;BME280;1213;43.206;27.922;2022-07-17T00:40:23;101384.31;;;22.33;100.00
2405;BME280;1213;43.206;27.922;2022-07-17T00:42:49;101385.50;;;22.31;100.00
2405;BME280;1213;43.206;27.922;2022-07-17T00:45:15;101389.00;;;22.23;100.00
2405;BME280;1213;43.206;27.922;2022-07-17T00:47:59;101381.78;;;22.24;100.00
2405;BME280;1213;43.206;27.922;2022-07-17T00:50:28;101381.44;;;22.19;100.00
2405;BME280;1213;43.206;27.922;2022-07-17T00:52:54;101377.44;;;22.23;100.00
2405;BME280;1213;43.206;27.922;2022-07-17T00:55:20;101389.00;;;22.23;100.00
2405;BME280;1213;43.206;27.922;2022-07-17T00:57:47;101384.78;;;22.21;100.00
2405;BME280;1213;43.206;27.922;2022-07-17T01:00:13;101379.09;;;22.24;100.00
2405;BME280;1213;43.206;27.922;2022-07-17T01:02:39;101384.63;;;22.22;100.00
2405;BME280;1213;43.206;27.922;2022-07-17T01:05:05;101382.13;;;22.29;100.00
2405;BME280;1213;43.206;27.922;2022-07-17T01:07:32;101380.25;;;22.21;100.00
2405;BME280;1213;43.206;27.922;2022-07-17T01:09:58;101377.41;;;22.14;100.00
2405;BME280;1213;43.206;27.922;2022-07-17T01:12:24;101376.06;;;22.19;100.00
2405;BME280;1213;43.206;27.922;2022-07-17T01:14:51;101375.22;;;22.18;100.00
2405;BME280;1213;43.206;27.922;2022-07-17T01:17:17;101365.91;;;22.22;100.00
2405;BME280;1213;43.206;27.922;2022-07-17T01:19:42;101370.38;;;22.22;100.00
2405;BME280;1213;43.206;27.922;2022-07-17T01:22:11;101368.59;;;22.30;100.00
2405;BME280;1213;43.206;27.922;2022-07-17T01:24:39;101367.41;;;22.25;100.00
2405;BME280;1213;43.206;27.922;2022-07-17T01:27:05;101365.03;;;22.22;100.00
2405;BME280;1213;43.206;27.922;2022-07-17T01:29:31;101363.88;;;22.24;100.00
2405;BME280;1213;43.206;27.922;2022-07-17T01:31:56;101363.69;;;22.18;100.00
2405;BME280;1213;43.206;27.922;2022-07-17T01:34:22;101360.69;;;22.21;100.00
2405;BME280;1213;43.206;27.922;2022-07-17T01:36:48;101367.38;;;22.17;100.00
2405;BME280;1213;43.206;27.922;2022-07-17T01:39:13;101362.19;;;22.15;100.00
2405;BME280;1213;43.206;27.922;2022-07-17T01:41:39;101362.53;;;22.28;100.00
2405;BME280;1213;43.206;27.922;2022-07-17T01:44:05;101365.56;;;22.25;100.00
2405;BME280;1213;43.206;27.922;2022-07-17T01:46:31;101365.22;;;22.28;100.00
2405;BME280;1213;43.206;27.922;2022-07-17T01:48:57;101360.38;;;22.24;100.00
2405;BME280;1213;43.206;27.922;2022-07-17T01:51:22;101362.84;;;22.17;100.00
2405;BME280;1213;43.206;27.922;2022-07-17T01:53:48;101365.69;;;22.15;100.00
2405;BME280;1213;43.206;27.922;2022-07-17T01:56:13;101364.34;;;22.20;100.00
2405;BME280;1213;43.206;27.922;2022-07-17T01:58:39;101353.31;;;22.14;100.00
2405;BME280;1213;43.206;27.922;2022-07-17T02:01:04;101356.31;;;22.11;100.00
2405;BME280;1213;43.206;27.922;2022-07-17T02:03:30;101360.59;;;22.04;100.00
2405;BME280;1213;43.206;27.922;2022-07-17T02:05:55;101364.75;;;21.99;100.00
2405;BME280;1213;43.206;27.922;2022-07-17T02:08:21;101376.44;;;21.89;100.00
2405;BME280;1213;43.206;27.922;2022-07-17T02:10:46;101370.19;;;21.81;100.00
2405;BME280;1213;43.206;27.922;2022-07-17T02:13:12;101370.66;;;21.76;100.00
2405;BME280;1213;43.206;27.922;2022-07-17T02:15:37;101369.53;;;21.79;100.00
2405;BME280;1213;43.206;27.922;2022-07-17T02:18:03;101371.72;;;21.83;100.00
2405;BME280;1213;43.206;27.922;2022-07-17T02:20:28;101373.00;;;21.71;100.00
2405;BME280;1213;43.206;27.922;2022-07-17T02:22:54;101373.50;;;21.75;100.00
2405;BME280;1213;43.206;27.922;2022-07-17T02:25:19;101382.00;;;21.62;100.00
2405;BME280;1213;43.206;27.922;2022-07-17T02:27:45;101381.63;;;21.57;100.00
2405;BME280;1213;43.206;27.922;2022-07-17T02:30:14;101383.50;;;21.65;100.00
2405;BME280;1213;43.206;27.922;2022-07-17T02:32:40;101378.09;;;21.56;100.00
2405;BME280;1213;43.206;27.922;2022-07-17T02:35:07;101386.63;;;21.60;100.00
2405;BME280;1213;43.206;27.922;2022-07-17T02:37:33;101387.91;;;21.48;100.00
2405;BME280;1213;43.206;27.922;2022-07-17T02:39:59;101389.06;;;21.45;100.00
2405;BME280;1213;43.206;27.922;2022-07-17T02:42:26;101389.72;;;21.39;100.00
2405;BME280;1213;43.206;27.922;2022-07-17T02:44:53;101390.44;;;21.49;100.00
2405;BME280;1213;43.206;27.922;2022-07-17T02:47:23;101397.63;;;21.49;100.00
2405;BME280;1213;43.206;27.922;2022-07-17T02:49:50;101392.56;;;21.46;100.00
2405;BME280;1213;43.206;27.922;2022-07-17T02:52:16;101400.06;;;21.42;100.00
2405;BME280;1213;43.206;27.922;2022-07-17T02:54:42;101414.75;;;21.38;100.00
2405;BME280;1213;43.206;27.922;2022-07-17T02:57:07;101415.97;;;21.44;100.00
2405;BME280;1213;43.206;27.922;2022-07-17T02:59:33;101404.53;;;21.33;100.00
2405;BME280;1213;43.206;27.922;2022-07-17T03:01:59;101409.09;;;21.41;100.00
2405;BME280;1213;43.206;27.922;2022-07-17T03:04:25;101415.59;;;21.39;100.00
2405;BME280;1213;43.206;27.922;2022-07-17T03:06:50;101418.41;;;21.37;100.00
2405;BME280;1213;43.206;27.922;2022-07-17T03:09:16;101417.63;;;21.45;100.00
2405;BME280;1213;43.206;27.922;2022-07-17T03:11:41;101420.78;;;21.40;100.00
2405;BME280;1213;43.206;27.922;2022-07-17T03:14:07;101422.63;;;21.40;100.00
2405;BME280;1213;43.206;27.922;2022-07-17T03:16:32;101424.59;;;21.38;100.00
2405;BME280;1213;43.206;27.922;2022-07-17T03:18:58;101416.97;;;21.43;100.00
2405;BME280;1213;43.206;27.922;2022-07-17T03:21:23;101411.09;;;21.39;100.00
2405;BME280;1213;43.206;27.922;2022-07-17T03:23:48;101422.63;;;21.40;100.00
2405;BME280;1213;43.206;27.922;2022-07-17T03:26:14;101416.56;;;21.38;100.00
2405;BME280;1213;43.206;27.922;2022-07-17T03:28:39;101418.34;;;21.29;100.00
2405;BME280;1213;43.206;27.922;2022-07-17T03:31:05;101418.47;;;21.45;100.00
2405;BME280;1213;43.206;27.922;2022-07-17T03:33:30;101411.78;;;21.41;100.00
2405;BME280;1213;43.206;27.922;2022-07-17T03:35:56;101423.47;;;21.40;100.00
2405;BME280;1213;43.206;27.922;2022-07-17T03:38:21;101423.81;;;21.45;100.00
2405;BME280;1213;43.206;27.922;2022-07-17T03:40:47;101420.34;;;21.53;100.00
2405;BME280;1213;43.206;27.922;2022-07-17T03:43:12;101416.59;;;21.64;100.00
2405;BME280;1213;43.206;27.922;2022-07-17T03:45:39;101429.88;;;21.73;100.00
2405;BME280;1213;43.206;27.922;2022-07-17T03:48:05;101431.38;;;21.76;100.00
2405;BME280;1213;43.206;27.922;2022-07-17T03:50:30;101430.91;;;21.80;100.00
2405;BME280;1213;43.206;27.922;2022-07-17T03:52:56;101430.91;;;21.80;100.00
2405;BME280;1213;43.206;27.922;2022-07-17T03:55:22;101431.13;;;21.87;100.00
2405;BME280;1213;43.206;27.922;2022-07-17T03:57:47;101431.00;;;21.97;100.00
2405;BME280;1213;43.206;27.922;2022-07-17T04:00:13;101430.69;;;22.00;100.00
2405;BME280;1213;43.206;27.922;2022-07-17T04:02:40;101433.44;;;22.08;100.00
2405;BME280;1213;43.206;27.922;2022-07-17T04:05:06;101426.91;;;22.10;100.00
2405;BME280;1213;43.206;27.922;2022-07-17T04:07:36;101436.66;;;22.20;100.00
2405;BME280;1213;43.206;27.922;2022-07-17T04:10:01;101432.16;;;22.28;100.00
2405;BME280;1213;43.206;27.922;2022-07-17T04:12:27;101442.41;;;22.33;100.00
2405;BME280;1213;43.206;27.922;2022-07-17T04:14:52;101440.75;;;22.40;100.00
2405;BME280;1213;43.206;27.922;2022-07-17T04:17:18;101437.63;;;22.61;100.00
2405;BME280;1213;43.206;27.922;2022-07-17T04:19:44;101447.00;;;22.65;100.00
2405;BME280;1213;43.206;27.922;2022-07-17T04:22:09;101440.81;;;22.73;100.00
2405;BME280;1213;43.206;27.922;2022-07-17T04:24:35;101441.22;;;22.86;100.00
2405;BME280;1213;43.206;27.922;2022-07-17T04:27:00;101437.06;;;22.91;100.00
2405;BME280;1213;43.206;27.922;2022-07-17T04:29:26;101433.84;;;23.04;100.00
2405;BME280;1213;43.206;27.922;2022-07-17T04:31:51;101430.50;;;23.18;100.00
2405;BME280;1213;43.206;27.922;2022-07-17T04:34:17;101429.66;;;23.34;100.00
2405;BME280;1213;43.206;27.922;2022-07-17T04:36:42;101433.19;;;23.43;100.00
2405;BME280;1213;43.206;27.922;2022-07-17T04:39:08;101430.34;;;23.52;100.00
2405;BME280;1213;43.206;27.922;2022-07-17T04:41:33;101440.91;;;23.62;100.00
2405;BME280;1213;43.206;27.922;2022-07-17T04:43:59;101428.31;;;23.71;100.00
2405;BME280;1213;43.206;27.922;2022-07-17T04:46:24;101438.19;;;23.78;100.00
2405;BME280;1213;43.206;27.922;2022-07-17T04:48:50;101440.03;;;23.78;100.00
2405;BME280;1213;43.206;27.922;2022-07-17T04:51:15;101443.69;;;23.85;100.00
2405;BME280;1213;43.206;27.922;2022-07-17T04:53:41;101440.63;;;24.04;100.00
2405;BME280;1213;43.206;27.922;2022-07-17T04:56:06;101445.81;;;24.06;100.00
2405;BME280;1213;43.206;27.922;2022-07-17T04:58:32;101442.88;;;24.24;100.00
2405;BME280;1213;43.206;27.922;2022-07-17T05:00:57;101439.19;;;24.33;100.00
2405;BME280;1213;43.206;27.922;2022-07-17T05:03:23;101439.81;;;24.43;100.00
2405;BME280;1213;43.206;27.922;2022-07-17T05:05:48;101444.50;;;24.49;100.00
2405;BME280;1213;43.206;27.922;2022-07-17T05:08:13;101443.25;;;24.60;100.00
2405;BME280;1213;43.206;27.922;2022-07-17T05:10:39;101442.97;;;24.78;100.00
2405;BME280;1213;43.206;27.922;2022-07-17T05:13:04;101447.28;;;24.87;100.00
2405;BME280;1213;43.206;27.922;2022-07-17T05:15:30;101448.25;;;24.94;100.00
2405;BME280;1213;43.206;27.922;2022-07-17T05:17:56;101447.00;;;25.05;100.00
2405;BME280;1213;43.206;27.922;2022-07-17T05:20:21;101460.47;;;25.05;100.00
2405;BME280;1213;43.206;27.922;2022-07-17T05:22:46;101459.38;;;25.14;100.00
2405;BME280;1213;43.206;27.922;2022-07-17T05:25:12;101463.22;;;25.20;100.00
2405;BME280;1213;43.206;27.922;2022-07-17T05:27:37;101465.31;;;25.32;100.00
2405;BME280;1213;43.206;27.922;2022-07-17T05:30:03;101457.50;;;25.37;100.00
2405;BME280;1213;43.206;27.922;2022-07-17T05:32:29;101463.81;;;25.44;100.00
2405;BME280;1213;43.206;27.922;2022-07-17T05:34:55;101459.66;;;25.42;100.00
2405;BME280;1213;43.206;27.922;2022-07-17T05:37:20;101459.69;;;25.57;100.00
2405;BME280;1213;43.206;27.922;2022-07-17T05:39:46;101461.16;;;25.59;100.00
2405;BME280;1213;43.206;27.922;2022-07-17T05:42:11;101461.56;;;25.71;100.00
2405;BME280;1213;43.206;27.922;2022-07-17T05:44:37;101470.63;;;25.78;100.00
2405;BME280;1213;43.206;27.922;2022-07-17T05:47:02;101456.03;;;25.87;100.00
2405;BME280;1213;43.206;27.922;2022-07-17T05:49:28;101455.47;;;25.92;100.00
2405;BME280;1213;43.206;27.922;2022-07-17T05:51:53;101466.91;;;25.94;100.00
2405;BME280;1213;43.206;27.922;2022-07-17T05:54:19;101455.47;;;26.07;100.00
2405;BME280;1213;43.206;27.922;2022-07-17T05:56:44;101459.56;;;26.17;100.00
2405;BME280;1213;43.206;27.922;2022-07-17T05:59:10;101464.66;;;26.27;100.00
2405;BME280;1213;43.206;27.922;2022-07-17T06:01:35;101455.81;;;26.33;100.00
2405;BME280;1213;43.206;27.922;2022-07-17T06:04:01;101460.38;;;26.33;100.00
2405;BME280;1213;43.206;27.922;2022-07-17T06:06:26;101459.66;;;26.39;100.00
2405;BME280;1213;43.206;27.922;2022-07-17T06:08:52;101460.75;;;26.44;100.00
2405;BME280;1213;43.206;27.922;2022-07-17T06:11:17;101466.88;;;26.53;100.00
2405;BME280;1213;43.206;27.922;2022-07-17T06:13:43;101465.59;;;26.49;100.00
2405;BME280;1213;43.206;27.922;2022-07-17T06:16:08;101468.44;;;26.62;100.00
2405;BME280;1213;43.206;27.922;2022-07-17T06:18:34;101467.84;;;26.67;100.00
2405;BME280;1213;43.206;27.922;2022-07-17T06:20:59;101464.69;;;26.78;100.00
2405;BME280;1213;43.206;27.922;2022-07-17T06:23:25;101470.06;;;26.78;100.00
2405;BME280;1213;43.206;27.922;2022-07-17T06:25:50;101470.59;;;26.88;100.00
2405;BME280;1213;43.206;27.922;2022-07-17T06:28:16;101462.16;;;26.98;100.00
2405;BME280;1213;43.206;27.922;2022-07-17T06:30:41;101471.28;;;26.97;100.00
2405;BME280;1213;43.206;27.922;2022-07-17T06:33:07;101462.13;;;27.13;100.00
2405;BME280;1213;43.206;27.922;2022-07-17T06:35:32;101459.31;;;27.21;100.00
2405;BME280;1213;43.206;27.922;2022-07-17T06:37:59;101463.44;;;27.17;100.00
2405;BME280;1213;43.206;27.922;2022-07-17T06:40:26;101463.75;;;27.28;100.00
2405;BME280;1213;43.206;27.922;2022-07-17T06:42:52;101459.03;;;27.37;100.00
2405;BME280;1213;43.206;27.922;2022-07-17T06:45:18;101467.28;;;27.29;100.00
2405;BME280;1213;43.206;27.922;2022-07-17T06:47:43;101465.28;;;27.37;100.00
2405;BME280;1213;43.206;27.922;2022-07-17T06:50:09;101451.63;;;27.46;100.00
2405;BME280;1213;43.206;27.922;2022-07-17T06:52:35;101457.78;;;27.61;100.00
2405;BME280;1213;43.206;27.922;2022-07-17T06:55:01;101460.00;;;27.57;100.00
2405;BME280;1213;43.206;27.922;2022-07-17T06:57:27;101454.03;;;27.62;100.00
2405;BME280;1213;43.206;27.922;2022-07-17T06:59:53;101445.31;;;27.60;97.33
2405;BME280;1213;43.206;27.922;2022-07-17T07:02:19;101448.31;;;27.72;100.00
2405;BME280;1213;43.206;27.922;2022-07-17T07:04:44;101472.66;;;27.78;100.00
2405;BME280;1213;43.206;27.922;2022-07-17T07:07:11;101474.16;;;27.87;100.00
2405;BME280;1213;43.206;27.922;2022-07-17T07:09:36;101477.69;;;27.88;100.00
2405;BME280;1213;43.206;27.922;2022-07-17T07:12:02;101491.38;;;27.80;100.00
2405;BME280;1213;43.206;27.922;2022-07-17T07:14:28;101468.03;;;27.72;100.00
2405;BME280;1213;43.206;27.922;2022-07-17T07:16:53;101473.53;;;27.85;100.00
2405;BME280;1213;43.206;27.922;2022-07-17T07:19:19;101481.47;;;27.93;100.00
2405;BME280;1213;43.206;27.922;2022-07-17T07:21:45;101465.03;;;27.88;100.00
2405;BME280;1213;43.206;27.922;2022-07-17T07:24:10;101470.56;;;28.08;100.00
2405;BME280;1213;43.206;27.922;2022-07-17T07:26:36;101473.50;;;28.13;100.00
2405;BME280;1213;43.206;27.922;2022-07-17T07:29:01;101480.38;;;28.16;100.00
2405;BME280;1213;43.206;27.922;2022-07-17T07:31:27;101476.84;;;28.15;100.00
2405;BME280;1213;43.206;27.922;2022-07-17T07:33:52;101488.69;;;28.14;100.00
2405;BME280;1213;43.206;27.922;2022-07-17T07:36:18;101481.78;;;28.05;100.00
2405;BME280;1213;43.206;27.922;2022-07-17T07:38:43;101492.38;;;28.07;100.00
2405;BME280;1213;43.206;27.922;2022-07-17T07:41:10;101483.91;;;28.16;100.00
2405;BME280;1213;43.206;27.922;2022-07-17T07:43:36;101487.00;;;28.13;100.00
2405;BME280;1213;43.206;27.922;2022-07-17T07:46:02;101493.00;;;28.37;100.00
2405;BME280;1213;43.206;27.922;2022-07-17T07:48:28;101485.56;;;28.52;100.00
2405;BME280;1213;43.206;27.922;2022-07-17T07:50:53;101489.34;;;28.71;100.00
2405;BME280;1213;43.206;27.922;2022-07-17T07:53:19;101493.75;;;28.79;100.00
2405;BME280;1213;43.206;27.922;2022-07-17T07:55:45;101496.47;;;28.85;100.00
2405;BME280;1213;43.206;27.922;2022-07-17T07:58:12;101493.31;;;28.68;100.00
2405;BME280;1213;43.206;27.922;2022-07-17T08:00:43;101493.75;;;28.79;100.00
2405;BME280;1213;43.206;27.922;2022-07-17T08:03:09;101486.97;;;28.96;100.00
2405;BME280;1213;43.206;27.922;2022-07-17T08:05:35;101500.91;;;28.99;100.00
2405;BME280;1213;43.206;27.922;2022-07-17T08:08:01;101499.06;;;29.13;100.00
2405;BME280;1213;43.206;27.922;2022-07-17T08:10:27;101493.25;;;29.23;100.00
2405;BME280;1213;43.206;27.922;2022-07-17T08:12:52;101502.84;;;29.45;100.00
2405;BME280;1213;43.206;27.922;2022-07-17T08:15:19;101493.25;;;29.49;100.00
2405;BME280;1213;43.206;27.922;2022-07-17T08:17:46;101502.03;;;29.58;96.26
2405;BME280;1213;43.206;27.922;2022-07-17T08:20:13;101497.22;;;29.60;93.58
2405;BME280;1213;43.206;27.922;2022-07-17T08:22:41;101496.19;;;29.74;100.00
2405;BME280;1213;43.206;27.922;2022-07-17T08:25:07;101504.53;;;29.79;100.00
2405;BME280;1213;43.206;27.922;2022-07-17T08:27:37;101518.28;;;29.78;100.00
2405;BME280;1213;43.206;27.922;2022-07-17T08:30:07;101511.38;;;29.49;100.00
2405;BME280;1213;43.206;27.922;2022-07-17T08:32:34;101504.31;;;29.68;100.00
2405;BME280;1213;43.206;27.922;2022-07-17T08:35:00;101497.00;;;29.48;70.07
2405;BME280;1213;43.206;27.922;2022-07-17T08:37:26;101511.41;;;29.62;98.99
2405;BME280;1213;43.206;27.922;2022-07-17T08:39:51;101510.78;;;29.53;87.85
2405;BME280;1213;43.206;27.922;2022-07-17T08:42:20;101503.91;;;29.58;88.94
2405;BME280;1213;43.206;27.922;2022-07-17T08:44:46;101498.50;;;29.71;70.19
2405;BME280;1213;43.206;27.922;2022-07-17T08:47:13;101505.53;;;29.85;77.77
2405;BME280;1213;43.206;27.922;2022-07-17T08:49:48;101510.13;;;29.91;94.57
2405;BME280;1213;43.206;27.922;2022-07-17T08:52:14;101522.22;;;29.82;99.17
2405;BME280;1213;43.206;27.922;2022-07-17T08:54:40;101524.09;;;29.62;100.00
2405;BME280;1213;43.206;27.922;2022-07-17T08:57:06;101522.44;;;29.47;100.00
2405;BME280;1213;43.206;27.922;2022-07-17T08:59:32;101524.94;;;29.49;100.00
2405;BME280;1213;43.206;27.922;2022-07-17T09:01:59;101522.63;;;29.46;100.00
2405;BME280;1213;43.206;27.922;2022-07-17T09:04:25;101520.34;;;29.43;100.00
2405;BME280;1213;43.206;27.922;2022-07-17T09:07:04;101524.47;;;29.32;100.00
2405;BME280;1213;43.206;27.922;2022-07-17T09:09:31;101528.03;;;29.26;100.00
2405;BME280;1213;43.206;27.922;2022-07-17T09:12:00;101524.69;;;29.11;100.00
2405;BME280;1213;43.206;27.922;2022-07-17T09:14:37;101532.16;;;29.02;100.00
2405;BME280;1213;43.206;27.922;2022-07-17T09:17:04;101531.13;;;29.03;100.00
2405;BME280;1213;43.206;27.922;2022-07-17T09:19:35;101521.47;;;28.87;100.00
2405;BME280;1213;43.206;27.922;2022-07-17T09:24:53;101524.03;;;28.95;100.00
2405;BME280;1213;43.206;27.922;2022-07-17T09:30:06;101525.53;;;29.18;100.00
2405;BME280;1213;43.206;27.922;2022-07-17T09:32:40;101528.19;;;28.98;100.00
2405;BME280;1213;43.206;27.922;2022-07-17T09:35:09;101521.75;;;29.06;100.00
2405;BME280;1213;43.206;27.922;2022-07-17T09:37:35;101532.00;;;29.30;100.00
2405;BME280;1213;43.206;27.922;2022-07-17T09:40:02;101519.53;;;29.49;94.61
2405;BME280;1213;43.206;27.922;2022-07-17T09:42:36;101519.94;;;29.72;95.39
2405;BME280;1213;43.206;27.922;2022-07-17T09:45:09;101501.59;;;29.88;80.26
2405;BME280;1213;43.206;27.922;2022-07-17T09:47:36;101520.72;;;30.06;86.39
2405;BME280;1213;43.206;27.922;2022-07-17T09:50:04;101508.06;;;29.87;83.18
2405;BME280;1213;43.206;27.922;2022-07-17T09:52:33;101505.53;;;29.92;69.93
2405;BME280;1213;43.206;27.922;2022-07-17T09:55:00;101500.50;;;30.15;70.30
2405;BME280;1213;43.206;27.922;2022-07-17T09:57:31;101503.22;;;30.15;65.96
2405;BME280;1213;43.206;27.922;2022-07-17T10:00:06;101519.09;;;30.11;62.98
2405;BME280;1213;43.206;27.922;2022-07-17T10:02:33;101514.91;;;30.02;62.56
2405;BME280;1213;43.206;27.922;2022-07-17T10:04:59;101510.09;;;30.18;65.20
2405;BME280;1213;43.206;27.922;2022-07-17T10:07:25;101515.44;;;30.37;77.49
2405;BME280;1213;43.206;27.922;2022-07-17T10:09:51;101512.88;;;30.56;81.97
2405;BME280;1213;43.206;27.922;2022-07-17T10:12:17;101521.16;;;30.74;88.64
2405;BME280;1213;43.206;27.922;2022-07-17T10:14:47;101527.31;;;30.50;82.90
2405;BME280;1213;43.206;27.922;2022-07-17T10:17:13;101528.16;;;30.44;84.92
2405;BME280;1213;43.206;27.922;2022-07-17T10:19:55;101516.50;;;30.30;77.19
2405;BME280;1213;43.206;27.922;2022-07-17T10:22:22;101524.63;;;30.43;83.76
2405;BME280;1213;43.206;27.922;2022-07-17T10:24:55;101522.25;;;30.66;80.60
2405;BME280;1213;43.206;27.922;2022-07-17T10:27:29;101506.19;;;30.58;61.18
2405;BME280;1213;43.206;27.922;2022-07-17T10:32:30;101504.38;;;30.90;60.55
2405;BME280;1213;43.206;27.922;2022-07-17T10:35:05;101489.81;;;30.85;60.29
2405;BME280;1213;43.206;27.922;2022-07-17T10:37:40;101499.94;;;30.96;66.88
2405;BME280;1213;43.206;27.922;2022-07-17T10:40:10;101498.47;;;31.00;65.41
2405;BME280;1213;43.206;27.922;2022-07-17T10:43:04;101496.97;;;31.04;59.87
2405;BME280;1213;43.206;27.922;2022-07-17T10:48:04;101493.13;;;31.18;58.63
2405;BME280;1213;43.206;27.922;2022-07-17T10:50:55;101490.66;;;31.10;56.57
2405;BME280;1213;43.206;27.922;2022-07-17T10:55:59;101484.78;;;31.45;54.56
2405;BME280;1213;43.206;27.922;2022-07-17T10:58:38;101477.84;;;31.49;55.81
2405;BME280;1213;43.206;27.922;2022-07-17T11:01:15;101477.66;;;31.19;54.49
2405;BME280;1213;43.206;27.922;2022-07-17T11:03:45;101483.53;;;31.23;56.17
2405;BME280;1213;43.206;27.922;2022-07-17T11:06:26;101490.72;;;31.35;59.39
2405;BME280;1213;43.206;27.922;2022-07-17T11:09:11;101479.97;;;31.15;57.26
2405;BME280;1213;43.206;27.922;2022-07-17T11:11:44;101489.84;;;31.10;56.77
2405;BME280;1213;43.206;27.922;2022-07-17T11:14:24;101478.69;;;30.93;57.55
2405;BME280;1213;43.206;27.922;2022-07-17T11:17:00;101481.03;;;31.14;60.90
2405;BME280;1213;43.206;27.922;2022-07-17T11:19:38;101479.75;;;31.24;55.52
2405;BME280;1213;43.206;27.922;2022-07-17T11:22:11;101503.50;;;31.28;57.13
2405;BME280;1213;43.206;27.922;2022-07-17T11:27:05;101524.41;;;31.59;96.01
2405;BME280;1213;43.206;27.922;2022-07-17T11:29:38;101505.69;;;31.69;100.00
2405;BME280;1213;43.206;27.922;2022-07-17T11:32:04;101509.44;;;31.93;100.00
2405;BME280;1213;43.206;27.922;2022-07-17T11:34:30;101517.66;;;31.87;100.00
2405;BME280;1213;43.206;27.922;2022-07-17T11:37:00;101524.59;;;31.33;100.00
2405;BME280;1213;43.206;27.922;2022-07-17T11:39:39;101518.38;;;31.19;100.00
2405;BME280;1213;43.206;27.922;2022-07-17T11:42:10;101518.91;;;31.03;100.00
2405;BME280;1213;43.206;27.922;2022-07-17T11:44:37;101520.75;;;31.09;100.00
2405;BME280;1213;43.206;27.922;2022-07-17T11:47:03;101523.72;;;31.07;100.00
2405;BME280;1213;43.206;27.922;2022-07-17T11:49:33;101522.91;;;31.00;100.00
2405;BME280;1213;43.206;27.922;2022-07-17T11:52:08;101519.44;;;30.86;100.00
2405;BME280;1213;43.206;27.922;2022-07-17T11:54:44;101523.91;;;30.67;100.00
2405;BME280;1213;43.206;27.922;2022-07-17T11:57:10;101520.34;;;30.60;100.00
2405;BME280;1213;43.206;27.922;2022-07-17T11:59:35;101521.88;;;30.50;100.00
2405;BME280;1213;43.206;27.922;2022-07-17T12:02:28;101520.94;;;30.18;100.00
2405;BME280;1213;43.206;27.922;2022-07-17T12:04:58;101513.53;;;30.45;100.00
2405;BME280;1213;43.206;27.922;2022-07-17T12:07:42;101515.34;;;30.71;100.00
2405;BME280;1213;43.206;27.922;2022-07-17T12:10:19;101514.22;;;30.85;100.00
2405;BME280;1213;43.206;27.922;2022-07-17T12:15:46;101516.13;;;31.16;100.00
2405;BME280;1213;43.206;27.922;2022-07-17T12:18:24;101517.56;;;30.87;100.00
2405;BME280;1213;43.206;27.922;2022-07-17T12:20:52;101524.31;;;30.71;100.00
2405;BME280;1213;43.206;27.922;2022-07-17T12:23:30;101529.56;;;30.53;100.00
2405;BME280;1213;43.206;27.922;2022-07-17T12:26:14;101523.75;;;30.49;100.00
2405;BME280;1213;43.206;27.922;2022-07-17T12:28:42;101524.31;;;30.64;100.00
2405;BME280;1213;43.206;27.922;2022-07-17T12:31:10;101514.53;;;31.02;100.00
2405;BME280;1213;43.206;27.922;2022-07-17T12:33:36;101515.66;;;31.26;100.00
2405;BME280;1213;43.206;27.922;2022-07-17T12:36:02;101518.88;;;31.09;100.00
2405;BME280;1213;43.206;27.922;2022-07-17T12:38:27;101524.97;;;31.05;100.00
2405;BME280;1213;43.206;27.922;2022-07-17T12:40:53;101521.81;;;30.76;100.00
2405;BME280;1213;43.206;27.922;2022-07-17T12:43:19;101528.88;;;30.77;100.00
2405;BME280;1213;43.206;27.922;2022-07-17T12:45:44;101518.97;;;30.96;100.00
2405;BME280;1213;43.206;27.922;2022-07-17T12:48:10;101521.09;;;30.87;100.00
2405;BME280;1213;43.206;27.922;2022-07-17T12:50:35;101528.91;;;30.71;100.00
2405;BME280;1213;43.206;27.922;2022-07-17T12:53:01;101531.41;;;30.72;100.00
2405;BME280;1213;43.206;27.922;2022-07-17T12:55:26;101517.28;;;30.95;100.00
2405;BME280;1213;43.206;27.922;2022-07-17T12:57:52;101528.72;;;31.04;100.00
2405;BME280;1213;43.206;27.922;2022-07-17T13:00:18;101529.88;;;30.83;100.00
2405;BME280;1213;43.206;27.922;2022-07-17T13:02:43;101531.56;;;30.84;100.00
2405;BME280;1213;43.206;27.922;2022-07-17T13:05:09;101532.69;;;30.70;100.00
2405;BME280;1213;43.206;27.922;2022-07-17T13:07:34;101530.03;;;30.43;100.00
2405;BME280;1213;43.206;27.922;2022-07-17T13:10:00;101519.84;;;30.38;100.00
2405;BME280;1213;43.206;27.922;2022-07-17T13:12:26;101519.47;;;30.15;100.00